sensor_id;sensor_type;location;lat;lon;timestamp;P1;durP1;ratioP1;P2;durP2;ratioP2
19842;SDS011;10082;51.038;6.992;2023-02-26T00:00:04;6.97;;;2.70;;
19842;SDS011;10082;51.038;6.992;2023-02-26T00:02:36;4.53;;;2.37;;
19842;SDS011;10082;51.038;6.992;2023-02-26T00:05:03;4.70;;;2.23;;
19842;SDS011;10082;51.038;6.992;2023-02-26T00:07:33;4.83;;;2.53;;
19842;SDS011;10082;51.038;6.992;2023-02-26T00:10:01;4.17;;;2.57;;
19842;SDS011;10082;51.038;6.992;2023-02-26T00:12:29;5.57;;;2.53;;
19842;SDS011;10082;51.038;6.992;2023-02-26T00:14:57;4.80;;;2.50;;
19842;SDS011;10082;51.038;6.992;2023-02-26T00:17:36;6.37;;;2.90;;
19842;SDS011;10082;51.038;6.992;2023-02-26T00:20:09;6.60;;;3.03;;
19842;SDS011;10082;51.038;6.992;2023-02-26T00:22:39;4.60;;;2.30;;
19842;SDS011;10082;51.038;6.992;2023-02-26T00:25:07;3.67;;;2.43;;
19842;SDS011;10082;51.038;6.992;2023-02-26T00:27:35;2.10;;;1.90;;
19842;SDS011;10082;51.038;6.992;2023-02-26T00:30:02;4.50;;;2.40;;
19842;SDS011;10082;51.038;6.992;2023-02-26T00:32:30;5.50;;;2.10;;
19842;SDS011;10082;51.038;6.992;2023-02-26T00:34:57;4.57;;;2.27;;
19842;SDS011;10082;51.038;6.992;2023-02-26T00:37:32;4.50;;;2.40;;
19842;SDS011;10082;51.038;6.992;2023-02-26T00:40:16;6.17;;;2.17;;
19842;SDS011;10082;51.038;6.992;2023-02-26T00:42:48;5.73;;;2.00;;
19842;SDS011;10082;51.038;6.992;2023-02-26T00:45:18;3.33;;;2.10;;
19842;SDS011;10082;51.038;6.992;2023-02-26T00:47:47;4.63;;;2.20;;
19842;SDS011;10082;51.038;6.992;2023-02-26T00:50:18;3.33;;;1.80;;
19842;SDS011;10082;51.038;6.992;2023-02-26T00:52:49;3.73;;;1.97;;
19842;SDS011;10082;51.038;6.992;2023-02-26T00:55:26;3.00;;;1.87;;
19842;SDS011;10082;51.038;6.992;2023-02-26T00:57:54;2.97;;;2.00;;
19842;SDS011;10082;51.038;6.992;2023-02-26T01:00:22;4.30;;;1.90;;
19842;SDS011;10082;51.038;6.992;2023-02-26T01:02:49;3.77;;;1.93;;
19842;SDS011;10082;51.038;6.992;2023-02-26T01:08:46;4.57;;;2.00;;
19842;SDS011;10082;51.038;6.992;2023-02-26T01:11:17;4.30;;;2.40;;
19842;SDS011;10082;51.038;6.992;2023-02-26T01:13:45;3.67;;;2.30;;
19842;SDS011;10082;51.038;6.992;2023-02-26T01:16:13;3.17;;;1.90;;
19842;SDS011;10082;51.038;6.992;2023-02-26T01:18:49;5.10;;;2.40;;
19842;SDS011;10082;51.038;6.992;2023-02-26T01:21:22;3.90;;;2.10;;
19842;SDS011;10082;51.038;6.992;2023-02-26T01:23:54;4.53;;;2.27;;
19842;SDS011;10082;51.038;6.992;2023-02-26T01:26:25;3.93;;;2.03;;
19842;SDS011;10082;51.038;6.992;2023-02-26T01:28:54;4.63;;;1.90;;
19842;SDS011;10082;51.038;6.992;2023-02-26T01:34:08;3.37;;;2.03;;
19842;SDS011;10082;51.038;6.992;2023-02-26T01:36:42;3.03;;;2.10;;
19842;SDS011;10082;51.038;6.992;2023-02-26T01:39:15;4.13;;;2.17;;
19842;SDS011;10082;51.038;6.992;2023-02-26T01:41:52;3.80;;;2.33;;
19842;SDS011;10082;51.038;6.992;2023-02-26T01:44:22;4.00;;;2.30;;
19842;SDS011;10082;51.038;6.992;2023-02-26T01:46:59;5.37;;;2.97;;
19842;SDS011;10082;51.038;6.992;2023-02-26T01:49:32;3.50;;;2.20;;
19842;SDS011;10082;51.038;6.992;2023-02-26T01:52:00;4.50;;;2.10;;
19842;SDS011;10082;51.038;6.992;2023-02-26T01:54:28;4.83;;;2.20;;
19842;SDS011;10082;51.038;6.992;2023-02-26T01:56:59;6.63;;;2.40;;
19842;SDS011;10082;51.038;6.992;2023-02-26T01:59:31;3.97;;;2.33;;
19842;SDS011;10082;51.038;6.992;2023-02-26T02:02:03;4.97;;;2.60;;
19842;SDS011;10082;51.038;6.992;2023-02-26T02:04:33;5.33;;;2.37;;
19842;SDS011;10082;51.038;6.992;2023-02-26T02:07:00;5.80;;;2.10;;
19842;SDS011;10082;51.038;6.992;2023-02-26T02:09:28;3.40;;;2.07;;
19842;SDS011;10082;51.038;6.992;2023-02-26T02:14:52;4.83;;;2.33;;
19842;SDS011;10082;51.038;6.992;2023-02-26T02:17:33;3.20;;;2.20;;
19842;SDS011;10082;51.038;6.992;2023-02-26T02:20:21;4.53;;;2.27;;
19842;SDS011;10082;51.038;6.992;2023-02-26T02:23:07;3.87;;;2.10;;
19842;SDS011;10082;51.038;6.992;2023-02-26T02:28:57;4.93;;;2.40;;
19842;SDS011;10082;51.038;6.992;2023-02-26T02:31:39;2.73;;;2.10;;
19842;SDS011;10082;51.038;6.992;2023-02-26T02:34:10;4.43;;;2.20;;
19842;SDS011;10082;51.038;6.992;2023-02-26T02:36:44;4.73;;;2.00;;
19842;SDS011;10082;51.038;6.992;2023-02-26T02:39:18;3.57;;;1.97;;
19842;SDS011;10082;51.038;6.992;2023-02-26T02:41:50;3.37;;;2.27;;
19842;SDS011;10082;51.038;6.992;2023-02-26T02:44:22;3.20;;;1.90;;
19842;SDS011;10082;51.038;6.992;2023-02-26T02:46:54;4.17;;;2.00;;
19842;SDS011;10082;51.038;6.992;2023-02-26T02:49:24;2.63;;;2.10;;
19842;SDS011;10082;51.038;6.992;2023-02-26T02:51:58;4.37;;;2.40;;
19842;SDS011;10082;51.038;6.992;2023-02-26T02:54:31;3.23;;;2.10;;
19842;SDS011;10082;51.038;6.992;2023-02-26T02:57:05;4.63;;;2.23;;
19842;SDS011;10082;51.038;6.992;2023-02-26T02:59:38;4.17;;;1.90;;
19842;SDS011;10082;51.038;6.992;2023-02-26T03:02:12;3.47;;;2.10;;
19842;SDS011;10082;51.038;6.992;2023-02-26T03:04:45;4.53;;;2.07;;
19842;SDS011;10082;51.038;6.992;2023-02-26T03:07:12;4.03;;;1.93;;
19842;SDS011;10082;51.038;6.992;2023-02-26T03:09:40;3.00;;;1.70;;
19842;SDS011;10082;51.038;6.992;2023-02-26T03:12:10;2.33;;;1.70;;
19842;SDS011;10082;51.038;6.992;2023-02-26T03:14:38;3.60;;;1.60;;
19842;SDS011;10082;51.038;6.992;2023-02-26T03:17:21;2.83;;;1.40;;
19842;SDS011;10082;51.038;6.992;2023-02-26T03:19:58;2.53;;;1.50;;
19842;SDS011;10082;51.038;6.992;2023-02-26T03:22:34;4.50;;;1.60;;
19842;SDS011;10082;51.038;6.992;2023-02-26T03:25:13;2.97;;;1.60;;
19842;SDS011;10082;51.038;6.992;2023-02-26T03:27:45;3.00;;;1.43;;
19842;SDS011;10082;51.038;6.992;2023-02-26T03:30:19;3.03;;;1.50;;
19842;SDS011;10082;51.038;6.992;2023-02-26T03:32:54;5.10;;;1.87;;
19842;SDS011;10082;51.038;6.992;2023-02-26T03:35:28;2.27;;;1.43;;
19842;SDS011;10082;51.038;6.992;2023-02-26T03:38:02;2.47;;;1.43;;
19842;SDS011;10082;51.038;6.992;2023-02-26T03:40:34;2.80;;;1.60;;
19842;SDS011;10082;51.038;6.992;2023-02-26T03:43:07;1.80;;;1.00;;
19842;SDS011;10082;51.038;6.992;2023-02-26T03:45:41;2.60;;;1.40;;
19842;SDS011;10082;51.038;6.992;2023-02-26T03:48:14;4.37;;;1.50;;
19842;SDS011;10082;51.038;6.992;2023-02-26T03:50:45;2.50;;;1.20;;
19842;SDS011;10082;51.038;6.992;2023-02-26T03:53:29;2.37;;;1.30;;
19842;SDS011;10082;51.038;6.992;2023-02-26T03:56:10;4.50;;;1.80;;
19842;SDS011;10082;51.038;6.992;2023-02-26T03:59:00;2.70;;;0.90;;
19842;SDS011;10082;51.038;6.992;2023-02-26T04:01:57;2.57;;;1.10;;
19842;SDS011;10082;51.038;6.992;2023-02-26T04:04:29;1.70;;;1.00;;
19842;SDS011;10082;51.038;6.992;2023-02-26T04:07:00;2.10;;;1.07;;
19842;SDS011;10082;51.038;6.992;2023-02-26T04:09:28;3.17;;;1.07;;
19842;SDS011;10082;51.038;6.992;2023-02-26T04:11:56;2.87;;;1.20;;
19842;SDS011;10082;51.038;6.992;2023-02-26T04:14:24;3.27;;;1.30;;
19842;SDS011;10082;51.038;6.992;2023-02-26T04:16:52;1.77;;;0.97;;
19842;SDS011;10082;51.038;6.992;2023-02-26T04:19:19;2.70;;;1.50;;
19842;SDS011;10082;51.038;6.992;2023-02-26T04:21:48;2.17;;;1.13;;
19842;SDS011;10082;51.038;6.992;2023-02-26T04:24:15;5.37;;;1.10;;
19842;SDS011;10082;51.038;6.992;2023-02-26T04:26:43;2.37;;;1.30;;
19842;SDS011;10082;51.038;6.992;2023-02-26T04:29:11;2.07;;;1.10;;
19842;SDS011;10082;51.038;6.992;2023-02-26T04:31:37;3.67;;;1.00;;
19842;SDS011;10082;51.038;6.992;2023-02-26T04:34:05;3.43;;;1.47;;
19842;SDS011;10082;51.038;6.992;2023-02-26T04:36:32;1.77;;;1.10;;
19842;SDS011;10082;51.038;6.992;2023-02-26T04:39:01;3.43;;;1.10;;
19842;SDS011;10082;51.038;6.992;2023-02-26T04:41:29;4.07;;;1.17;;
19842;SDS011;10082;51.038;6.992;2023-02-26T04:46:33;3.23;;;1.10;;
19842;SDS011;10082;51.038;6.992;2023-02-26T04:49:00;1.90;;;1.00;;
19842;SDS011;10082;51.038;6.992;2023-02-26T04:51:28;2.33;;;1.00;;
19842;SDS011;10082;51.038;6.992;2023-02-26T04:53:55;2.50;;;0.90;;
19842;SDS011;10082;51.038;6.992;2023-02-26T04:56:24;4.63;;;1.30;;
19842;SDS011;10082;51.038;6.992;2023-02-26T04:58:52;2.43;;;1.30;;
19842;SDS011;10082;51.038;6.992;2023-02-26T05:01:25;2.83;;;0.90;;
19842;SDS011;10082;51.038;6.992;2023-02-26T05:03:52;1.70;;;1.00;;
19842;SDS011;10082;51.038;6.992;2023-02-26T05:06:19;1.90;;;1.07;;
19842;SDS011;10082;51.038;6.992;2023-02-26T05:08:46;1.40;;;0.83;;
19842;SDS011;10082;51.038;6.992;2023-02-26T05:11:13;1.30;;;0.90;;
19842;SDS011;10082;51.038;6.992;2023-02-26T05:13:42;5.17;;;1.07;;
19842;SDS011;10082;51.038;6.992;2023-02-26T05:16:09;1.37;;;0.90;;
19842;SDS011;10082;51.038;6.992;2023-02-26T05:18:36;2.80;;;1.20;;
19842;SDS011;10082;51.038;6.992;2023-02-26T05:21:03;4.20;;;1.20;;
19842;SDS011;10082;51.038;6.992;2023-02-26T05:23:31;1.30;;;1.03;;
19842;SDS011;10082;51.038;6.992;2023-02-26T05:25:59;1.83;;;1.30;;
19842;SDS011;10082;51.038;6.992;2023-02-26T05:28:26;2.20;;;1.00;;
19842;SDS011;10082;51.038;6.992;2023-02-26T05:30:56;1.80;;;1.00;;
19842;SDS011;10082;51.038;6.992;2023-02-26T05:33:24;2.30;;;1.10;;
19842;SDS011;10082;51.038;6.992;2023-02-26T05:35:51;2.30;;;1.00;;
19842;SDS011;10082;51.038;6.992;2023-02-26T05:38:23;3.33;;;1.10;;
19842;SDS011;10082;51.038;6.992;2023-02-26T05:40:54;2.60;;;1.20;;
19842;SDS011;10082;51.038;6.992;2023-02-26T05:43:22;1.50;;;0.83;;
19842;SDS011;10082;51.038;6.992;2023-02-26T05:45:50;2.90;;;1.10;;
19842;SDS011;10082;51.038;6.992;2023-02-26T05:48:19;2.80;;;1.20;;
19842;SDS011;10082;51.038;6.992;2023-02-26T05:50:46;3.03;;;1.30;;
19842;SDS011;10082;51.038;6.992;2023-02-26T05:53:14;2.17;;;1.20;;
19842;SDS011;10082;51.038;6.992;2023-02-26T05:55:41;3.00;;;1.17;;
19842;SDS011;10082;51.038;6.992;2023-02-26T05:58:09;1.90;;;1.20;;
19842;SDS011;10082;51.038;6.992;2023-02-26T06:00:36;2.37;;;1.10;;
19842;SDS011;10082;51.038;6.992;2023-02-26T06:03:05;5.43;;;1.50;;
19842;SDS011;10082;51.038;6.992;2023-02-26T06:05:33;1.93;;;1.20;;
19842;SDS011;10082;51.038;6.992;2023-02-26T06:08:01;2.73;;;1.20;;
19842;SDS011;10082;51.038;6.992;2023-02-26T06:10:28;3.50;;;1.33;;
19842;SDS011;10082;51.038;6.992;2023-02-26T06:12:55;2.03;;;1.17;;
19842;SDS011;10082;51.038;6.992;2023-02-26T06:15:22;4.60;;;1.67;;
19842;SDS011;10082;51.038;6.992;2023-02-26T06:17:50;2.50;;;1.30;;
19842;SDS011;10082;51.038;6.992;2023-02-26T06:20:17;3.37;;;1.30;;
19842;SDS011;10082;51.038;6.992;2023-02-26T06:22:45;2.57;;;1.20;;
19842;SDS011;10082;51.038;6.992;2023-02-26T06:25:12;2.23;;;1.20;;
19842;SDS011;10082;51.038;6.992;2023-02-26T06:27:40;2.20;;;1.17;;
19842;SDS011;10082;51.038;6.992;2023-02-26T06:30:07;3.27;;;1.60;;
19842;SDS011;10082;51.038;6.992;2023-02-26T06:32:36;2.10;;;1.30;;
19842;SDS011;10082;51.038;6.992;2023-02-26T06:35:03;3.80;;;1.27;;
19842;SDS011;10082;51.038;6.992;2023-02-26T06:37:30;3.50;;;1.50;;
19842;SDS011;10082;51.038;6.992;2023-02-26T06:39:59;2.47;;;1.40;;
19842;SDS011;10082;51.038;6.992;2023-02-26T06:42:26;2.73;;;1.30;;
19842;SDS011;10082;51.038;6.992;2023-02-26T06:44:53;2.53;;;2.00;;
19842;SDS011;10082;51.038;6.992;2023-02-26T06:47:21;3.53;;;1.50;;
19842;SDS011;10082;51.038;6.992;2023-02-26T06:49:50;3.73;;;1.80;;
19842;SDS011;10082;51.038;6.992;2023-02-26T06:52:17;1.87;;;1.40;;
19842;SDS011;10082;51.038;6.992;2023-02-26T06:54:44;2.80;;;1.70;;
19842;SDS011;10082;51.038;6.992;2023-02-26T06:57:12;2.90;;;1.57;;
19842;SDS011;10082;51.038;6.992;2023-02-26T06:59:40;2.80;;;1.40;;
19842;SDS011;10082;51.038;6.992;2023-02-26T07:02:08;1.70;;;1.50;;
19842;SDS011;10082;51.038;6.992;2023-02-26T07:04:40;2.27;;;1.30;;
19842;SDS011;10082;51.038;6.992;2023-02-26T07:07:07;2.70;;;1.40;;
19842;SDS011;10082;51.038;6.992;2023-02-26T07:09:35;2.50;;;1.43;;
19842;SDS011;10082;51.038;6.992;2023-02-26T07:12:02;3.13;;;1.50;;
19842;SDS011;10082;51.038;6.992;2023-02-26T07:14:32;2.40;;;1.40;;
19842;SDS011;10082;51.038;6.992;2023-02-26T07:17:00;3.03;;;1.73;;
19842;SDS011;10082;51.038;6.992;2023-02-26T07:19:28;2.00;;;1.60;;
19842;SDS011;10082;51.038;6.992;2023-02-26T07:21:55;2.77;;;1.63;;
19842;SDS011;10082;51.038;6.992;2023-02-26T07:24:22;2.50;;;1.60;;
19842;SDS011;10082;51.038;6.992;2023-02-26T07:26:49;2.27;;;1.53;;
19842;SDS011;10082;51.038;6.992;2023-02-26T07:29:16;1.80;;;1.53;;
19842;SDS011;10082;51.038;6.992;2023-02-26T07:31:45;3.10;;;1.67;;
19842;SDS011;10082;51.038;6.992;2023-02-26T07:34:16;2.77;;;1.60;;
19842;SDS011;10082;51.038;6.992;2023-02-26T07:36:43;2.80;;;1.50;;
19842;SDS011;10082;51.038;6.992;2023-02-26T07:39:10;3.43;;;1.63;;
19842;SDS011;10082;51.038;6.992;2023-02-26T07:41:37;2.43;;;1.50;;
19842;SDS011;10082;51.038;6.992;2023-02-26T07:44:12;2.63;;;1.50;;
19842;SDS011;10082;51.038;6.992;2023-02-26T07:46:39;2.40;;;1.57;;
19842;SDS011;10082;51.038;6.992;2023-02-26T07:49:08;2.73;;;1.50;;
19842;SDS011;10082;51.038;6.992;2023-02-26T07:51:35;2.90;;;1.77;;
19842;SDS011;10082;51.038;6.992;2023-02-26T07:54:03;3.23;;;1.70;;
19842;SDS011;10082;51.038;6.992;2023-02-26T07:56:36;2.90;;;1.67;;
19842;SDS011;10082;51.038;6.992;2023-02-26T07:59:04;3.33;;;1.50;;
19842;SDS011;10082;51.038;6.992;2023-02-26T08:01:30;2.37;;;1.70;;
19842;SDS011;10082;51.038;6.992;2023-02-26T08:03:58;2.23;;;1.40;;
19842;SDS011;10082;51.038;6.992;2023-02-26T08:06:27;1.80;;;1.50;;
19842;SDS011;10082;51.038;6.992;2023-02-26T08:08:54;1.53;;;1.30;;
19842;SDS011;10082;51.038;6.992;2023-02-26T08:11:21;2.77;;;1.47;;
19842;SDS011;10082;51.038;6.992;2023-02-26T08:13:48;3.03;;;1.63;;
19842;SDS011;10082;51.038;6.992;2023-02-26T08:16:15;2.33;;;1.30;;
19842;SDS011;10082;51.038;6.992;2023-02-26T08:18:42;2.73;;;1.37;;
19842;SDS011;10082;51.038;6.992;2023-02-26T08:21:09;1.93;;;1.37;;
19842;SDS011;10082;51.038;6.992;2023-02-26T08:23:38;2.03;;;1.40;;
19842;SDS011;10082;51.038;6.992;2023-02-26T08:26:06;2.00;;;1.40;;
19842;SDS011;10082;51.038;6.992;2023-02-26T08:28:35;2.20;;;1.60;;
19842;SDS011;10082;51.038;6.992;2023-02-26T08:31:03;2.53;;;1.50;;
19842;SDS011;10082;51.038;6.992;2023-02-26T08:33:31;1.95;;;1.25;;
19842;SDS011;10082;51.038;6.992;2023-02-26T08:35:59;3.75;;;1.70;;
19842;SDS011;10082;51.038;6.992;2023-02-26T08:38:26;1.52;;;1.30;;
19842;SDS011;10082;51.038;6.992;2023-02-26T08:40:56;2.42;;;1.63;;
19842;SDS011;10082;51.038;6.992;2023-02-26T08:43:23;2.05;;;1.23;;
19842;SDS011;10082;51.038;6.992;2023-02-26T08:45:51;2.38;;;1.20;;
19842;SDS011;10082;51.038;6.992;2023-02-26T08:48:18;2.53;;;1.30;;
19842;SDS011;10082;51.038;6.992;2023-02-26T08:50:46;3.58;;;1.52;;
19842;SDS011;10082;51.038;6.992;2023-02-26T08:53:14;4.20;;;1.50;;
19842;SDS011;10082;51.038;6.992;2023-02-26T08:55:41;2.67;;;1.30;;
19842;SDS011;10082;51.038;6.992;2023-02-26T08:58:10;1.98;;;1.05;;
19842;SDS011;10082;51.038;6.992;2023-02-26T09:00:37;2.63;;;1.40;;
19842;SDS011;10082;51.038;6.992;2023-02-26T09:03:05;2.35;;;1.30;;
19842;SDS011;10082;51.038;6.992;2023-02-26T09:05:32;2.78;;;1.25;;
19842;SDS011;10082;51.038;6.992;2023-02-26T09:08:00;2.63;;;1.45;;
19842;SDS011;10082;51.038;6.992;2023-02-26T09:10:28;3.60;;;1.33;;
19842;SDS011;10082;51.038;6.992;2023-02-26T09:12:54;2.13;;;1.10;;
19842;SDS011;10082;51.038;6.992;2023-02-26T09:15:23;2.97;;;1.02;;
19842;SDS011;10082;51.038;6.992;2023-02-26T09:17:53;1.00;;;0.90;;
19842;SDS011;10082;51.038;6.992;2023-02-26T09:20:20;1.10;;;1.00;;
19842;SDS011;10082;51.038;6.992;2023-02-26T09:22:47;1.58;;;1.00;;
19842;SDS011;10082;51.038;6.992;2023-02-26T09:25:14;1.88;;;1.30;;
19842;SDS011;10082;51.038;6.992;2023-02-26T09:27:41;1.77;;;0.93;;
19842;SDS011;10082;51.038;6.992;2023-02-26T09:30:12;2.95;;;0.90;;
19842;SDS011;10082;51.038;6.992;2023-02-26T09:32:42;1.92;;;0.95;;
19842;SDS011;10082;51.038;6.992;2023-02-26T09:35:09;1.48;;;0.90;;
19842;SDS011;10082;51.038;6.992;2023-02-26T09:37:37;2.22;;;1.05;;
19842;SDS011;10082;51.038;6.992;2023-02-26T09:40:05;0.90;;;0.75;;
19842;SDS011;10082;51.038;6.992;2023-02-26T09:42:38;2.33;;;0.90;;
19842;SDS011;10082;51.038;6.992;2023-02-26T09:45:17;1.13;;;0.70;;
19842;SDS011;10082;51.038;6.992;2023-02-26T09:47:52;1.25;;;0.70;;
19842;SDS011;10082;51.038;6.992;2023-02-26T09:50:33;1.42;;;0.98;;
19842;SDS011;10082;51.038;6.992;2023-02-26T09:53:09;1.10;;;0.97;;
19842;SDS011;10082;51.038;6.992;2023-02-26T09:55:43;0.93;;;0.70;;
19842;SDS011;10082;51.038;6.992;2023-02-26T09:58:13;1.83;;;0.80;;
19842;SDS011;10082;51.038;6.992;2023-02-26T10:00:46;2.57;;;0.77;;
19842;SDS011;10082;51.038;6.992;2023-02-26T10:03:24;1.53;;;0.97;;
19842;SDS011;10082;51.038;6.992;2023-02-26T10:06:04;1.63;;;0.87;;
19842;SDS011;10082;51.038;6.992;2023-02-26T10:08:40;1.10;;;0.87;;
19842;SDS011;10082;51.038;6.992;2023-02-26T10:11:13;2.07;;;0.87;;
19842;SDS011;10082;51.038;6.992;2023-02-26T10:13:49;0.70;;;0.70;;
19842;SDS011;10082;51.038;6.992;2023-02-26T10:16:21;1.50;;;1.00;;
19842;SDS011;10082;51.038;6.992;2023-02-26T10:18:51;1.63;;;1.03;;
19842;SDS011;10082;51.038;6.992;2023-02-26T10:21:27;1.47;;;0.80;;
19842;SDS011;10082;51.038;6.992;2023-02-26T10:23:59;1.77;;;1.10;;
19842;SDS011;10082;51.038;6.992;2023-02-26T10:26:31;3.13;;;1.20;;
19842;SDS011;10082;51.038;6.992;2023-02-26T10:29:05;2.10;;;0.90;;
19842;SDS011;10082;51.038;6.992;2023-02-26T10:31:45;2.50;;;1.20;;
19842;SDS011;10082;51.038;6.992;2023-02-26T10:34:35;1.80;;;1.33;;
19842;SDS011;10082;51.038;6.992;2023-02-26T10:37:11;2.23;;;1.30;;
19842;SDS011;10082;51.038;6.992;2023-02-26T10:39:46;1.33;;;0.90;;
19842;SDS011;10082;51.038;6.992;2023-02-26T10:42:19;1.53;;;0.80;;
19842;SDS011;10082;51.038;6.992;2023-02-26T10:44:52;2.17;;;1.00;;
19842;SDS011;10082;51.038;6.992;2023-02-26T10:47:39;1.33;;;0.80;;
19842;SDS011;10082;51.038;6.992;2023-02-26T10:50:15;1.90;;;0.90;;
19842;SDS011;10082;51.038;6.992;2023-02-26T10:52:48;1.70;;;1.00;;
19842;SDS011;10082;51.038;6.992;2023-02-26T10:55:31;1.27;;;0.83;;
19842;SDS011;10082;51.038;6.992;2023-02-26T10:58:05;2.80;;;0.93;;
19842;SDS011;10082;51.038;6.992;2023-02-26T11:00:38;1.73;;;0.90;;
19842;SDS011;10082;51.038;6.992;2023-02-26T11:03:06;1.00;;;0.80;;
19842;SDS011;10082;51.038;6.992;2023-02-26T11:05:40;2.10;;;0.70;;
19842;SDS011;10082;51.038;6.992;2023-02-26T11:08:10;2.53;;;0.70;;
19842;SDS011;10082;51.038;6.992;2023-02-26T11:10:42;1.10;;;0.63;;
19842;SDS011;10082;51.038;6.992;2023-02-26T11:13:14;0.70;;;0.60;;
19842;SDS011;10082;51.038;6.992;2023-02-26T11:15:41;2.97;;;0.57;;
19842;SDS011;10082;51.038;6.992;2023-02-26T11:18:12;1.20;;;0.80;;
19842;SDS011;10082;51.038;6.992;2023-02-26T11:20:42;1.20;;;0.80;;
19842;SDS011;10082;51.038;6.992;2023-02-26T11:23:15;0.83;;;0.50;;
19842;SDS011;10082;51.038;6.992;2023-02-26T11:25:51;0.53;;;0.50;;
19842;SDS011;10082;51.038;6.992;2023-02-26T11:28:22;0.80;;;0.60;;
19842;SDS011;10082;51.038;6.992;2023-02-26T11:30:52;0.57;;;0.40;;
19842;SDS011;10082;51.038;6.992;2023-02-26T11:33:22;0.97;;;0.57;;
19842;SDS011;10082;51.038;6.992;2023-02-26T11:35:53;0.73;;;0.70;;
19842;SDS011;10082;51.038;6.992;2023-02-26T11:38:27;1.33;;;0.80;;
19842;SDS011;10082;51.038;6.992;2023-02-26T11:40:55;1.47;;;0.80;;
19842;SDS011;10082;51.038;6.992;2023-02-26T11:43:24;1.53;;;0.80;;
19842;SDS011;10082;51.038;6.992;2023-02-26T11:45:59;1.13;;;0.70;;
19842;SDS011;10082;51.038;6.992;2023-02-26T11:48:32;1.67;;;0.70;;
19842;SDS011;10082;51.038;6.992;2023-02-26T11:51:06;2.10;;;0.80;;
19842;SDS011;10082;51.038;6.992;2023-02-26T11:53:41;2.57;;;1.00;;
19842;SDS011;10082;51.038;6.992;2023-02-26T11:58:53;2.03;;;1.07;;
19842;SDS011;10082;51.038;6.992;2023-02-26T12:01:21;1.67;;;1.00;;
19842;SDS011;10082;51.038;6.992;2023-02-26T12:03:54;1.60;;;0.90;;
19842;SDS011;10082;51.038;6.992;2023-02-26T12:06:26;1.00;;;0.80;;
19842;SDS011;10082;51.038;6.992;2023-02-26T12:08:55;0.97;;;0.77;;
19842;SDS011;10082;51.038;6.992;2023-02-26T12:17:29;1.03;;;0.83;;
19842;SDS011;10082;51.038;6.992;2023-02-26T12:20:05;0.70;;;0.67;;
19842;SDS011;10082;51.038;6.992;2023-02-26T12:22:46;2.40;;;1.10;;
19842;SDS011;10082;51.038;6.992;2023-02-26T12:25:29;1.80;;;0.93;;
19842;SDS011;10082;51.038;6.992;2023-02-26T12:28:20;2.77;;;1.20;;
19842;SDS011;10082;51.038;6.992;2023-02-26T12:31:10;1.50;;;0.87;;
19842;SDS011;10082;51.038;6.992;2023-02-26T12:33:57;1.33;;;0.60;;
19842;SDS011;10082;51.038;6.992;2023-02-26T12:36:38;1.60;;;0.57;;
19842;SDS011;10082;51.038;6.992;2023-02-26T12:39:20;2.17;;;0.70;;
19842;SDS011;10082;51.038;6.992;2023-02-26T12:42:15;0.90;;;0.70;;
19842;SDS011;10082;51.038;6.992;2023-02-26T12:44:54;1.50;;;0.93;;
19842;SDS011;10082;51.038;6.992;2023-02-26T12:47:36;1.90;;;0.90;;
19842;SDS011;10082;51.038;6.992;2023-02-26T12:50:17;0.90;;;0.70;;
19842;SDS011;10082;51.038;6.992;2023-02-26T12:53:06;1.30;;;0.60;;
19842;SDS011;10082;51.038;6.992;2023-02-26T12:55:59;0.90;;;0.90;;
19842;SDS011;10082;51.038;6.992;2023-02-26T12:58:47;1.23;;;0.80;;
19842;SDS011;10082;51.038;6.992;2023-02-26T13:01:35;0.97;;;0.73;;
19842;SDS011;10082;51.038;6.992;2023-02-26T13:04:21;0.70;;;0.60;;
19842;SDS011;10082;51.038;6.992;2023-02-26T13:07:13;1.20;;;0.80;;
19842;SDS011;10082;51.038;6.992;2023-02-26T13:09:51;1.20;;;0.80;;
19842;SDS011;10082;51.038;6.992;2023-02-26T13:12:32;0.80;;;0.60;;
19842;SDS011;10082;51.038;6.992;2023-02-26T13:15:22;2.20;;;1.00;;
19842;SDS011;10082;51.038;6.992;2023-02-26T13:18:06;2.23;;;0.83;;
19842;SDS011;10082;51.038;6.992;2023-02-26T13:20:39;0.63;;;0.60;;
19842;SDS011;10082;51.038;6.992;2023-02-26T13:23:11;2.00;;;0.70;;
19842;SDS011;10082;51.038;6.992;2023-02-26T13:25:43;1.03;;;0.80;;
19842;SDS011;10082;51.038;6.992;2023-02-26T13:28:19;1.27;;;0.70;;
19842;SDS011;10082;51.038;6.992;2023-02-26T13:31:05;1.30;;;0.60;;
19842;SDS011;10082;51.038;6.992;2023-02-26T13:33:34;2.33;;;1.20;;
19842;SDS011;10082;51.038;6.992;2023-02-26T13:36:03;1.17;;;0.90;;
19842;SDS011;10082;51.038;6.992;2023-02-26T13:38:34;1.20;;;0.70;;
19842;SDS011;10082;51.038;6.992;2023-02-26T13:41:13;2.50;;;0.93;;
19842;SDS011;10082;51.038;6.992;2023-02-26T13:43:49;1.53;;;0.67;;
19842;SDS011;10082;51.038;6.992;2023-02-26T13:46:35;2.57;;;1.03;;
19842;SDS011;10082;51.038;6.992;2023-02-26T13:49:14;0.73;;;0.60;;
19842;SDS011;10082;51.038;6.992;2023-02-26T13:51:46;1.87;;;0.90;;
19842;SDS011;10082;51.038;6.992;2023-02-26T13:54:28;1.83;;;0.80;;
19842;SDS011;10082;51.038;6.992;2023-02-26T13:57:14;0.97;;;0.80;;
19842;SDS011;10082;51.038;6.992;2023-02-26T13:59:52;0.60;;;0.60;;
19842;SDS011;10082;51.038;6.992;2023-02-26T14:05:32;1.13;;;0.70;;
19842;SDS011;10082;51.038;6.992;2023-02-26T14:08:23;0.90;;;0.80;;
19842;SDS011;10082;51.038;6.992;2023-02-26T14:10:56;0.90;;;0.73;;
19842;SDS011;10082;51.038;6.992;2023-02-26T14:13:31;2.27;;;0.80;;
19842;SDS011;10082;51.038;6.992;2023-02-26T14:16:00;0.93;;;0.70;;
19842;SDS011;10082;51.038;6.992;2023-02-26T14:18:41;1.07;;;0.73;;
19842;SDS011;10082;51.038;6.992;2023-02-26T14:24:06;1.37;;;0.70;;
19842;SDS011;10082;51.038;6.992;2023-02-26T14:26:43;1.07;;;0.63;;
19842;SDS011;10082;51.038;6.992;2023-02-26T14:29:14;2.07;;;0.90;;
19842;SDS011;10082;51.038;6.992;2023-02-26T14:32:10;1.63;;;0.63;;
19842;SDS011;10082;51.038;6.992;2023-02-26T14:34:45;0.93;;;0.70;;
19842;SDS011;10082;51.038;6.992;2023-02-26T14:37:16;0.93;;;0.70;;
19842;SDS011;10082;51.038;6.992;2023-02-26T14:39:48;1.50;;;0.70;;
19842;SDS011;10082;51.038;6.992;2023-02-26T14:42:21;1.97;;;1.13;;
19842;SDS011;10082;51.038;6.992;2023-02-26T14:45:08;1.27;;;0.80;;
19842;SDS011;10082;51.038;6.992;2023-02-26T14:47:43;2.13;;;0.87;;
19842;SDS011;10082;51.038;6.992;2023-02-26T14:50:14;2.63;;;0.70;;
19842;SDS011;10082;51.038;6.992;2023-02-26T14:55:58;3.00;;;0.70;;
19842;SDS011;10082;51.038;6.992;2023-02-26T15:01:27;1.00;;;0.60;;
19842;SDS011;10082;51.038;6.992;2023-02-26T15:07:06;0.70;;;0.70;;
19842;SDS011;10082;51.038;6.992;2023-02-26T15:09:49;2.53;;;0.80;;
19842;SDS011;10082;51.038;6.992;2023-02-26T15:12:30;0.80;;;0.70;;
19842;SDS011;10082;51.038;6.992;2023-02-26T15:15:12;0.80;;;0.70;;
19842;SDS011;10082;51.038;6.992;2023-02-26T15:18:09;1.00;;;0.70;;
19842;SDS011;10082;51.038;6.992;2023-02-26T15:20:48;2.03;;;0.97;;
19842;SDS011;10082;51.038;6.992;2023-02-26T15:23:29;0.70;;;0.60;;
19842;SDS011;10082;51.038;6.992;2023-02-26T15:26:06;1.20;;;0.70;;
19842;SDS011;10082;51.038;6.992;2023-02-26T15:28:39;0.80;;;0.70;;
19842;SDS011;10082;51.038;6.992;2023-02-26T15:31:09;1.27;;;0.60;;
19842;SDS011;10082;51.038;6.992;2023-02-26T15:33:40;0.77;;;0.50;;
19842;SDS011;10082;51.038;6.992;2023-02-26T15:36:11;1.43;;;0.57;;
19842;SDS011;10082;51.038;6.992;2023-02-26T15:38:42;1.00;;;0.70;;
19842;SDS011;10082;51.038;6.992;2023-02-26T15:41:11;1.00;;;0.80;;
19842;SDS011;10082;51.038;6.992;2023-02-26T15:43:40;1.83;;;0.90;;
19842;SDS011;10082;51.038;6.992;2023-02-26T15:46:14;0.95;;;0.70;;
19842;SDS011;10082;51.038;6.992;2023-02-26T15:48:42;1.33;;;0.60;;
19842;SDS011;10082;51.038;6.992;2023-02-26T15:51:11;1.00;;;0.90;;
19842;SDS011;10082;51.038;6.992;2023-02-26T15:53:40;1.30;;;1.00;;
19842;SDS011;10082;51.038;6.992;2023-02-26T15:56:12;0.60;;;0.60;;